createdAt,value
2022-10-25T00:00:50.258Z,100805.38
2022-10-25T00:03:17.158Z,100805.53
2022-10-25T00:05:43.633Z,100813.44
2022-10-25T00:08:10.078Z,100818.81
2022-10-25T00:10:37.525Z,100814.41
2022-10-25T00:13:04.702Z,100816.88
2022-10-25T00:15:31.256Z,100794.22
2022-10-25T00:17:58.036Z,100811.63
2022-10-25T00:20:24.453Z,100809.81
2022-10-25T00:22:51.011Z,100815.91
2022-10-25T00:25:17.656Z,100823.78
2022-10-25T00:27:44.063Z,100812.88
2022-10-25T00:30:11.316Z,100821.75
2022-10-25T00:32:37.773Z,100823.41
2022-10-25T00:35:04.549Z,100818.94
2022-10-25T00:37:31.062Z,100822.16
2022-10-25T00:39:57.548Z,100821.19
2022-10-25T00:42:26.794Z,100817.88
2022-10-25T00:44:55.040Z,100819.13
2022-10-25T00:47:21.434Z,100827.97
2022-10-25T00:49:47.793Z,100833.53
2022-10-25T00:52:14.434Z,100823.28
2022-10-25T00:54:50.465Z,100828.53
2022-10-25T00:57:27.536Z,100838.34
2022-10-25T00:59:54.141Z,100839.31
2022-10-25T01:02:22.290Z,100838.50
2022-10-25T01:04:50.121Z,100839.47
2022-10-25T01:07:16.558Z,100838.78
2022-10-25T01:09:43.275Z,100847.63
2022-10-25T01:12:09.698Z,100853.72
2022-10-25T01:14:39.089Z,100846.66
2022-10-25T01:17:32.904Z,100849.00
2022-10-25T01:20:16.442Z,100841.81
2022-10-25T01:22:58.536Z,100843.47
2022-10-25T01:26:05.648Z,100841.66
2022-10-25T01:28:54.004Z,100843.31
2022-10-25T01:31:47.820Z,100853.69
2022-10-25T01:34:29.323Z,100855.66
2022-10-25T01:37:10.833Z,100850.25
2022-10-25T01:39:58.193Z,100852.72
2022-10-25T01:43:08.797Z,100861.59
2022-10-25T01:45:45.922Z,100857.59
2022-10-25T01:48:19.430Z,100871.97
2022-10-25T01:50:47.591Z,100860.59
2022-10-25T01:53:14.903Z,100869.19
2022-10-25T01:55:56.836Z,100864.88
2022-10-25T01:58:31.251Z,100871.00
2022-10-25T02:01:22.400Z,100873.75
2022-10-25T02:03:54.733Z,100867.53
2022-10-25T02:06:46.189Z,100853.84
2022-10-25T02:09:57.439Z,100873.63
2022-10-25T02:12:58.730Z,100857.16
2022-10-25T02:15:40.001Z,100871.13
2022-10-25T02:18:15.914Z,100859.78
2022-10-25T02:20:46.784Z,100866.97
2022-10-25T02:23:15.223Z,100864.91
2022-10-25T02:25:43.210Z,100865.31
2022-10-25T02:28:12.624Z,100864.63
2022-10-25T02:30:42.297Z,100870.84
2022-10-25T02:33:09.060Z,100871.53
2022-10-25T02:35:35.735Z,100836.56
2022-10-25T02:38:02.194Z,100879.72
2022-10-25T02:40:28.767Z,100876.25
2022-10-25T02:42:55.281Z,100870.00
2022-10-25T02:45:59.476Z,100877.91
2022-10-25T02:48:26.486Z,100875.13
2022-10-25T02:50:52.999Z,100877.91
2022-10-25T02:53:19.445Z,100879.59
2022-10-25T02:55:45.976Z,100879.84
2022-10-25T02:58:12.413Z,100885.53
2022-10-25T03:00:38.930Z,100892.44
2022-10-25T03:03:05.475Z,100895.06
2022-10-25T03:05:31.887Z,100899.22
2022-10-25T03:07:58.334Z,100893.09
2022-10-25T03:10:24.805Z,100898.25
2022-10-25T03:12:51.264Z,100904.84
2022-10-25T03:15:17.677Z,100910.28
2022-10-25T03:17:44.176Z,100818.47
2022-10-25T03:20:10.926Z,100898.78
2022-10-25T03:22:37.391Z,100870.44
2022-10-25T03:25:04.209Z,100888.97
2022-10-25T03:27:30.689Z,100903.75
2022-10-25T03:29:57.152Z,100897.41
2022-10-25T03:32:23.625Z,100895.88
2022-10-25T03:34:50.042Z,100905.81
2022-10-25T03:37:16.572Z,100903.34
2022-10-25T03:39:42.996Z,100903.75
2022-10-25T03:42:09.434Z,100907.75
2022-10-25T03:44:35.947Z,100900.84
2022-10-25T03:47:02.349Z,100911.09
2022-10-25T03:49:28.828Z,100911.53
2022-10-25T03:51:57.903Z,100914.00
2022-10-25T03:54:29.256Z,100915.66
2022-10-25T03:56:55.950Z,100917.03
2022-10-25T03:59:22.448Z,100924.66
2022-10-25T04:01:48.931Z,100916.91
2022-10-25T04:04:15.419Z,100924.50
2022-10-25T04:06:41.851Z,100928.22
2022-10-25T04:09:08.542Z,100935.44
2022-10-25T04:11:35.029Z,100924.78
2022-10-25T04:14:01.447Z,100929.91
2022-10-25T04:16:27.976Z,100922.84
2022-10-25T04:18:54.631Z,100923.97
2022-10-25T04:21:21.573Z,100934.19
2022-10-25T04:23:49.776Z,100938.75
2022-10-25T04:26:18.473Z,100936.41
2022-10-25T04:28:50.052Z,100939.16
2022-10-25T04:31:16.662Z,100937.22
2022-10-25T04:33:46.505Z,100939.44
2022-10-25T04:36:15.820Z,100944.97
2022-10-25T04:38:42.266Z,100949.81
2022-10-25T04:41:09.818Z,100950.06
2022-10-25T04:43:36.705Z,100951.19
2022-10-25T04:46:03.978Z,100953.53
2022-10-25T04:48:30.420Z,100959.06
2022-10-25T04:50:59.881Z,100954.63
2022-10-25T04:53:26.421Z,100951.03
2022-10-25T04:56:00.831Z,100958.09
2022-10-25T04:58:31.232Z,100958.91
2022-10-25T05:01:11.238Z,100953.53
2022-10-25T05:03:38.602Z,100954.63
2022-10-25T05:06:10.450Z,100948.81
2022-10-25T05:08:40.110Z,100956.00
2022-10-25T05:11:07.805Z,100948.97
2022-10-25T05:13:39.241Z,100952.53
2022-10-25T05:16:06.353Z,100955.31
2022-10-25T05:18:34.182Z,100937.44
2022-10-25T05:21:04.237Z,100964.56
2022-10-25T05:23:31.930Z,100954.47
2022-10-25T05:26:07.267Z,100969.81
2022-10-25T05:28:35.571Z,100962.47
2022-10-25T05:31:06.407Z,100969.91
2022-10-25T05:33:33.838Z,100981.38
2022-10-25T05:36:01.907Z,100964.38
2022-10-25T05:38:31.123Z,100978.34
2022-10-25T05:41:00.577Z,100968.34
2022-10-25T05:43:27.450Z,100978.72
2022-10-25T05:46:11.749Z,100981.34
2022-10-25T05:48:39.044Z,100986.34
2022-10-25T05:51:33.130Z,100981.59
2022-10-25T05:54:03.018Z,100986.84
2022-10-25T05:56:31.726Z,100993.06
2022-10-25T05:59:01.544Z,100995.69
2022-10-25T06:01:28.232Z,101005.59
2022-10-25T06:03:55.581Z,100992.63
2022-10-25T06:06:22.895Z,101009.66
2022-10-25T06:08:49.519Z,101015.03
2022-10-25T06:11:19.758Z,101010.03
2022-10-25T06:13:46.307Z,101011.72
2022-10-25T06:16:16.422Z,101024.28
2022-10-25T06:18:43.529Z,101016.00
2022-10-25T06:21:13.171Z,101030.66
2022-10-25T06:23:40.594Z,101029.00
2022-10-25T06:26:09.780Z,101016.09
2022-10-25T06:28:36.813Z,101026.38
2022-10-25T06:31:04.838Z,101032.53
2022-10-25T06:33:32.265Z,101043.91
2022-10-25T06:36:01.231Z,101043.91
2022-10-25T06:38:28.776Z,101034.38
2022-10-25T06:40:59.589Z,101044.84
2022-10-25T06:43:26.711Z,101054.41
2022-10-25T06:45:53.306Z,101053.69
2022-10-25T06:48:20.422Z,101054.41
2022-10-25T06:50:49.878Z,101069.19
2022-10-25T06:53:18.593Z,101062.38
2022-10-25T06:55:47.203Z,101065.84
2022-10-25T06:58:13.672Z,101072.50
2022-10-25T07:00:40.172Z,101079.16
2022-10-25T07:03:06.666Z,101083.47
2022-10-25T07:05:33.124Z,101096.47
2022-10-25T07:07:59.579Z,101089.44
2022-10-25T07:10:26.265Z,101101.19
2022-10-25T07:12:52.784Z,101100.09
2022-10-25T07:17:50.709Z,101111.56
2022-10-25T07:20:17.283Z,101105.25
2022-10-25T07:22:43.730Z,101111.31
2022-10-25T07:25:10.260Z,101111.06
2022-10-25T07:27:36.788Z,101110.78
2022-10-25T07:30:03.695Z,101116.50
2022-10-25T07:32:30.168Z,101104.88
2022-10-25T07:37:27.942Z,101125.34
2022-10-25T07:39:54.399Z,101107.25
2022-10-25T07:42:20.846Z,101131.69
2022-10-25T07:47:18.655Z,101122.84
2022-10-25T07:49:45.078Z,101135.06
2022-10-25T07:52:11.576Z,101122.03
2022-10-25T07:54:38.052Z,101127.88
2022-10-25T07:57:06.400Z,101133.81
2022-10-25T07:59:32.808Z,101123.41
2022-10-25T08:01:59.246Z,101109.31
2022-10-25T08:04:25.926Z,101123.47
2022-10-25T08:06:52.466Z,101127.75
2022-10-25T08:09:36.971Z,101121.13
2022-10-25T08:12:04.071Z,101114.81
2022-10-25T08:14:30.772Z,101132.31
2022-10-25T08:16:58.058Z,101121.13
2022-10-25T08:19:24.642Z,101129.31
2022-10-25T08:21:51.095Z,101118.84
2022-10-25T08:24:17.617Z,101130.47
2022-10-25T08:26:44.104Z,101129.94
2022-10-25T08:29:10.767Z,101121.19
2022-10-25T08:31:37.293Z,101138.53
2022-10-25T08:34:04.054Z,101131.28
2022-10-25T08:36:30.646Z,101128.06
2022-10-25T08:38:57.107Z,101122.78
2022-10-25T08:41:41.996Z,101129.47
2022-10-25T08:44:33.971Z,101128.81
2022-10-25T08:47:34.821Z,101125.41
2022-10-25T08:50:01.268Z,101134.50
2022-10-25T08:52:43.785Z,101122.31
2022-10-25T08:55:14.828Z,101115.88
2022-10-25T08:57:46.786Z,101145.63
2022-10-25T09:00:24.567Z,101147.47
2022-10-25T09:02:56.295Z,101142.75
2022-10-25T09:05:37.873Z,101140.50
2022-10-25T09:08:16.563Z,101152.25
2022-10-25T09:10:49.233Z,101152.38
2022-10-25T09:13:26.419Z,101160.63
2022-10-25T09:15:55.006Z,101162.63
2022-10-25T09:18:39.662Z,101167.66
2022-10-25T09:21:15.649Z,101159.94
2022-10-25T09:24:01.589Z,101172.06
2022-10-25T09:26:46.149Z,101171.53
2022-10-25T09:29:35.987Z,101170.59
2022-10-25T09:32:05.418Z,101180.91
2022-10-25T09:34:35.785Z,101185.22
2022-10-25T09:37:25.206Z,101175.25
2022-10-25T09:39:55.147Z,101184.38
2022-10-25T09:42:30.533Z,101174.97
2022-10-25T09:45:01.946Z,101193.88
2022-10-25T09:47:45.583Z,101191.00
2022-10-25T09:50:38.964Z,101192.50
2022-10-25T09:53:19.076Z,101189.72
2022-10-25T09:55:57.383Z,101200.03
2022-10-25T09:58:30.564Z,101197.53
2022-10-25T10:01:00.822Z,101196.06
2022-10-25T10:03:32.077Z,101210.56
2022-10-25T10:06:29.545Z,101206.13
2022-10-25T10:09:10.998Z,101198.72
2022-10-25T10:11:39.064Z,101204.59
2022-10-25T10:14:14.743Z,101210.56
2022-10-25T10:16:45.451Z,101221.44
2022-10-25T10:19:21.101Z,101213.41
2022-10-25T10:21:55.026Z,101221.50
2022-10-25T10:24:32.419Z,101204.63
2022-10-25T10:27:01.801Z,101205.16
2022-10-25T10:29:30.536Z,101220.47
2022-10-25T10:32:03.022Z,101219.75
2022-10-25T10:34:32.319Z,101223.34
2022-10-25T10:37:20.507Z,101226.03
2022-10-25T10:40:08.280Z,101222.22
2022-10-25T10:42:37.465Z,101219.28
2022-10-25T10:45:09.903Z,101223.28
2022-10-25T10:47:56.962Z,101225.16
2022-10-25T10:50:24.321Z,101226.75
2022-10-25T10:53:05.027Z,101223.00
2022-10-25T10:55:33.913Z,101227.81
2022-10-25T10:58:19.514Z,101207.81
2022-10-25T11:00:55.019Z,101189.84
2022-10-25T11:03:58.823Z,101219.38
2022-10-25T11:06:36.575Z,101221.09
2022-10-25T11:09:22.234Z,101210.56
2022-10-25T11:12:11.553Z,101214.88
2022-10-25T11:14:38.429Z,101207.34
2022-10-25T11:17:15.224Z,101212.59
2022-10-25T11:19:58.887Z,101217.19
2022-10-25T11:22:32.894Z,101218.19
2022-10-25T11:25:05.269Z,101214.88
2022-10-25T11:27:56.161Z,101211.66
2022-10-25T11:30:24.452Z,101227.94
2022-10-25T11:33:05.949Z,101220.03
2022-10-25T11:35:59.232Z,101212.22
2022-10-25T11:38:31.840Z,101214.34
2022-10-25T11:41:16.940Z,101213.94
2022-10-25T11:44:02.636Z,101216.41
2022-10-25T11:46:42.496Z,101217.88
2022-10-25T11:49:14.818Z,101232.72
2022-10-25T11:51:56.068Z,101226.91
2022-10-25T11:54:44.913Z,101222.47
2022-10-25T11:57:44.429Z,101224.69
2022-10-25T12:00:23.122Z,101232.81
2022-10-25T12:03:27.078Z,101231.22
2022-10-25T12:06:12.154Z,101229.19
2022-10-25T12:08:38.538Z,101227.44
2022-10-25T12:11:13.774Z,101230.44
2022-10-25T12:13:49.608Z,101221.63
2022-10-25T12:16:19.818Z,101220.09
2022-10-25T12:18:49.605Z,101224.50
2022-10-25T12:21:23.924Z,101230.53
2022-10-25T12:23:53.748Z,101217.78
2022-10-25T12:26:31.520Z,101221.44
2022-10-25T12:29:02.192Z,101214.41
2022-10-25T12:31:35.840Z,101212.44
2022-10-25T12:34:36.142Z,101203.28
2022-10-25T12:37:16.834Z,101196.81
2022-10-25T12:39:44.570Z,101207.69
2022-10-25T12:42:16.908Z,101213.09
2022-10-25T12:45:21.943Z,101210.69
2022-10-25T12:48:07.164Z,101204.00
2022-10-25T12:50:45.854Z,101205.34
2022-10-25T12:53:49.819Z,101204.38
2022-10-25T12:56:31.679Z,101207.22
2022-10-25T12:59:07.254Z,101216.50
2022-10-25T13:01:58.608Z,101208.34
2022-10-25T13:04:36.683Z,101212.53
2022-10-25T13:07:06.438Z,101202.88
2022-10-25T13:09:36.614Z,101215.66
2022-10-25T13:12:18.108Z,101208.97
2022-10-25T13:14:50.714Z,101208.47
2022-10-25T13:17:17.133Z,101206.31
2022-10-25T13:20:00.543Z,101216.44
2022-10-25T13:22:40.292Z,101214.03
2022-10-25T13:25:12.876Z,101210.09
2022-10-25T13:28:00.536Z,101206.31
2022-10-25T13:30:32.050Z,101200.66
2022-10-25T13:33:23.913Z,101209.03
2022-10-25T13:35:50.545Z,101205.66
2022-10-25T13:38:26.296Z,101211.84
2022-10-25T13:41:15.360Z,101216.44
2022-10-25T13:44:01.726Z,101217.94
2022-10-25T13:46:47.889Z,101214.00
2022-10-25T13:49:26.492Z,101211.50
2022-10-25T13:52:05.052Z,101213.75
2022-10-25T13:54:48.397Z,101216.06
2022-10-25T13:57:45.826Z,101213.94
2022-10-25T14:00:28.920Z,101209.03
2022-10-25T14:03:12.999Z,101216.25
2022-10-25T14:05:57.613Z,101216.34
2022-10-25T14:08:40.422Z,101217.47
2022-10-25T14:11:40.119Z,101208.50
2022-10-25T14:14:18.535Z,101210.59
2022-10-25T14:17:07.729Z,101210.00
2022-10-25T14:19:42.689Z,101216.25
2022-10-25T14:22:18.027Z,101210.41
2022-10-25T14:24:48.829Z,101214.69
2022-10-25T14:27:36.553Z,101200.97
2022-10-25T14:30:12.149Z,101208.50
2022-10-25T14:32:38.935Z,101196.75
2022-10-25T14:35:06.283Z,101199.53
2022-10-25T14:37:32.980Z,101202.41
2022-10-25T14:39:59.494Z,101195.31
2022-10-25T14:42:26.033Z,101198.84
2022-10-25T14:44:52.888Z,101207.09
2022-10-25T14:47:33.889Z,101200.41
2022-10-25T14:50:01.524Z,101185.94
2022-10-25T14:52:30.728Z,101186.03
2022-10-25T14:55:07.069Z,101172.56
2022-10-25T14:57:34.703Z,101182.75
2022-10-25T15:00:03.699Z,101177.28
2022-10-25T15:02:34.066Z,101181.66
2022-10-25T15:05:02.172Z,101180.13
2022-10-25T15:07:43.645Z,101183.69
2022-10-25T15:10:41.103Z,101181.72
2022-10-25T15:13:16.595Z,101175.78
2022-10-25T15:15:46.603Z,101171.47
2022-10-25T15:18:35.618Z,101164.38
2022-10-25T15:21:04.994Z,101169.81
2022-10-25T15:23:31.562Z,101165.84
2022-10-25T15:25:58.111Z,101163.50
2022-10-25T15:28:24.706Z,101157.88
2022-10-25T15:30:51.151Z,101165.31
2022-10-25T15:33:37.839Z,101163.97
2022-10-25T15:36:05.717Z,101149.56
2022-10-25T15:39:06.779Z,101157.81
2022-10-25T15:41:22.535Z,101137.91
2022-10-25T15:43:49.086Z,101156.91
2022-10-25T15:46:34.917Z,101153.47
2022-10-25T15:49:05.103Z,101155.56
2022-10-25T15:51:33.658Z,101155.34
2022-10-25T15:54:00.128Z,101153.00
2022-10-25T15:56:27.212Z,101150.31
2022-10-25T15:58:53.742Z,101144.94
2022-10-25T16:01:21.445Z,101156.63
2022-10-25T16:03:48.177Z,101149.41
2022-10-25T16:06:14.745Z,101166.22
2022-10-25T16:08:42.304Z,101151.81
2022-10-25T16:11:15.400Z,101149.25
2022-10-25T16:13:43.481Z,101132.97
2022-10-25T16:16:38.778Z,101147.59
2022-10-25T16:19:06.093Z,101139.03
2022-10-25T16:21:32.648Z,101133.94
2022-10-25T16:23:59.112Z,101142.22
2022-10-25T16:26:34.089Z,101154.03
2022-10-25T16:29:00.645Z,101150.31
2022-10-25T16:31:27.120Z,101150.72
2022-10-25T16:33:54.676Z,101141.63
2022-10-25T16:36:21.238Z,101133.91
2022-10-25T16:38:48.190Z,101147.09
2022-10-25T16:41:26.234Z,101124.97
2022-10-25T16:43:52.692Z,101150.03
2022-10-25T16:46:19.268Z,101137.75
2022-10-25T16:48:45.803Z,101137.63
2022-10-25T16:51:14.556Z,101130.16
2022-10-25T16:53:42.368Z,101144.41
2022-10-25T16:56:11.380Z,101137.66
2022-10-25T16:58:39.082Z,101129.63
2022-10-25T17:01:22.343Z,101123.94
2022-10-25T17:03:50.467Z,101123.63
2022-10-25T17:09:05.459Z,101129.03
2022-10-25T17:11:31.992Z,101137.84
2022-10-25T17:13:58.463Z,101135.50
2022-10-25T17:16:25.016Z,101134.22
2022-10-25T17:18:51.516Z,101128.00
2022-10-25T17:21:18.140Z,101131.28
2022-10-25T17:23:44.602Z,101117.06
2022-10-25T17:26:11.711Z,101129.63
2022-10-25T17:28:43.063Z,101126.44
2022-10-25T17:31:12.626Z,101126.69
2022-10-25T17:33:39.165Z,101124.44
2022-10-25T17:36:11.752Z,101126.53
2022-10-25T17:38:38.466Z,101114.22
2022-10-25T17:41:05.343Z,101127.34
2022-10-25T17:43:33.730Z,101123.19
2022-10-25T17:46:06.950Z,101131.84
2022-10-25T17:48:33.856Z,101108.56
2022-10-25T17:51:07.943Z,101125.19
2022-10-25T17:53:34.812Z,101126.28
2022-10-25T17:56:15.988Z,101128.19
2022-10-25T17:58:44.302Z,101113.94
2022-10-25T18:01:12.262Z,101115.28
2022-10-25T18:03:39.172Z,101116.63
2022-10-25T18:06:08.574Z,101121.09
2022-10-25T18:08:38.372Z,101110.88
2022-10-25T18:11:19.377Z,101116.94
2022-10-25T18:13:45.898Z,101119.38
2022-10-25T18:16:12.627Z,101109.72
2022-10-25T18:18:39.311Z,101104.16
2022-10-25T18:21:10.427Z,101116.19
2022-10-25T18:23:37.240Z,101124.88
2022-10-25T18:26:04.990Z,101112.41
2022-10-25T18:28:35.316Z,101125.13
2022-10-25T18:31:09.138Z,101120.28
2022-10-25T18:33:38.000Z,101122.91
2022-10-25T18:36:07.561Z,101126.72
2022-10-25T18:38:34.618Z,101128.19
2022-10-25T18:41:05.773Z,101120.13
2022-10-25T18:43:32.655Z,101122.28
2022-10-25T18:45:59.920Z,101125.16
2022-10-25T18:48:30.252Z,101117.78
2022-10-25T18:50:56.932Z,101125.16
2022-10-25T18:53:23.418Z,101107.56
2022-10-25T18:55:53.564Z,101113.19
2022-10-25T18:58:20.107Z,101118.44
2022-10-25T19:00:47.045Z,101090.97
2022-10-25T19:03:15.982Z,101109.06
2022-10-25T19:05:43.394Z,101099.78
2022-10-25T19:08:11.542Z,101095.50
2022-10-25T19:10:41.967Z,101100.97
2022-10-25T19:13:18.528Z,101097.84
2022-10-25T19:15:46.319Z,101099.75
2022-10-25T19:18:14.091Z,101089.75
2022-10-25T19:20:45.482Z,101095.59
2022-10-25T19:23:13.005Z,101099.31
2022-10-25T19:25:39.569Z,101088.59
2022-10-25T19:28:06.278Z,101094.66
2022-10-25T19:30:37.727Z,101093.47
2022-10-25T19:33:04.366Z,101080.88
2022-10-25T19:35:31.084Z,101088.72
2022-10-25T19:37:57.622Z,101096.94
2022-10-25T19:42:50.830Z,101088.84
2022-10-25T19:45:17.857Z,101095.38
2022-10-25T19:47:45.721Z,101097.63
2022-10-25T19:50:12.567Z,101101.66
2022-10-25T19:52:39.396Z,101099.28
2022-10-25T19:55:06.383Z,101097.00
2022-10-25T19:57:33.643Z,101089.25
2022-10-25T20:00:00.148Z,101086.53
2022-10-25T20:02:26.828Z,101090.91
2022-10-25T20:04:53.527Z,101090.19
2022-10-25T20:07:20.007Z,101075.91
2022-10-25T20:09:46.499Z,101080.19
2022-10-25T20:12:12.942Z,101079.00
2022-10-25T20:14:39.465Z,101076.59
2022-10-25T20:17:06.457Z,101072.44
2022-10-25T20:19:32.922Z,101074.34
2022-10-25T20:21:59.501Z,101062.22
2022-10-25T20:24:26.573Z,101075.38
2022-10-25T20:26:53.307Z,101064.47
2022-10-25T20:29:25.054Z,101067.53
2022-10-25T20:31:51.974Z,101061.34
2022-10-25T20:34:19.778Z,101050.75
2022-10-25T20:36:47.151Z,101047.41
2022-10-25T20:39:14.319Z,101048.34
2022-10-25T20:41:41.139Z,101052.25
2022-10-25T20:44:08.953Z,101046.75
2022-10-25T20:46:35.577Z,101046.28
2022-10-25T20:49:03.298Z,101061.81
2022-10-25T20:51:29.868Z,101056.94
2022-10-25T20:53:56.991Z,101053.59
2022-10-25T20:56:23.897Z,101051.53
2022-10-25T20:58:50.894Z,101063.97
2022-10-25T21:01:17.513Z,101056.25
2022-10-25T21:03:44.177Z,101058.47
2022-10-25T21:06:12.275Z,101045.75
2022-10-25T21:08:39.222Z,101046.06
2022-10-25T21:11:09.320Z,101046.78
2022-10-25T21:13:36.977Z,101049.41
2022-10-25T21:16:07.918Z,101053.06
2022-10-25T21:18:35.996Z,101048.88
2022-10-25T21:21:05.188Z,101048.69
2022-10-25T21:23:32.151Z,101045.31
2022-10-25T21:26:06.664Z,101041.19
2022-10-25T21:28:40.925Z,101030.84
2022-10-25T21:31:11.351Z,101030.94
2022-10-25T21:33:38.581Z,101031.97
2022-10-25T21:36:07.903Z,101023.56
2022-10-25T21:38:34.370Z,101031.25
2022-10-25T21:41:11.451Z,101029.84
2022-10-25T21:43:42.390Z,101020.53
2022-10-25T21:46:08.856Z,101031.91
2022-10-25T21:48:35.775Z,101034.44
2022-10-25T21:51:02.645Z,101030.16
2022-10-25T21:53:29.183Z,101022.44
2022-10-25T21:56:11.722Z,101033.38
2022-10-25T21:58:43.997Z,101035.78
2022-10-25T22:01:16.039Z,101030.31
2022-10-25T22:03:43.255Z,101024.75
2022-10-25T22:06:12.410Z,101030.50
2022-10-25T22:08:39.441Z,101007.06
2022-10-25T22:11:08.376Z,101032.56
2022-10-25T22:13:35.533Z,101035.91
2022-10-25T22:16:11.400Z,101025.13
2022-10-25T22:18:38.003Z,101035.34
2022-10-25T22:21:07.556Z,101028.22
2022-10-25T22:23:34.478Z,101027.16
2022-10-25T22:26:02.896Z,101022.66
2022-10-25T22:28:30.223Z,101015.53
2022-10-25T22:31:08.756Z,101017.03
2022-10-25T22:33:36.313Z,101026.44
2022-10-25T22:36:08.124Z,101028.69
2022-10-25T22:38:35.528Z,101021.69
2022-10-25T22:41:04.973Z,101018.13
2022-10-25T22:43:37.013Z,101023.22
2022-10-25T22:46:05.780Z,101011.97
2022-10-25T22:48:34.854Z,101010.06
2022-10-25T22:51:02.018Z,101007.56
2022-10-25T22:53:29.079Z,101009.72
2022-10-25T22:56:04.145Z,101009.38
2022-10-25T22:58:35.303Z,100999.53
2022-10-25T23:01:09.777Z,101003.72
2022-10-25T23:03:44.528Z,101012.53
2022-10-25T23:06:17.095Z,101004.84
2022-10-25T23:08:43.895Z,101002.47
2022-10-25T23:11:16.872Z,101002.72
2022-10-25T23:13:43.811Z,101004.13
2022-10-25T23:16:11.705Z,101000.19
2022-10-25T23:18:39.482Z,100993.19
2022-10-25T23:21:10.547Z,101003.31
2022-10-25T23:23:38.754Z,100996.53
2022-10-25T23:28:38.789Z,100990.34
2022-10-25T23:31:07.163Z,100993.44
2022-10-25T23:33:34.108Z,100987.25
2022-10-25T23:36:20.607Z,100994.16
2022-10-25T23:38:48.604Z,100987.97
2022-10-25T23:41:15.908Z,100992.81
2022-10-25T23:43:42.432Z,100996.28
2022-10-25T23:46:09.882Z,100984.13
2022-10-25T23:48:36.566Z,100982.94
2022-10-25T23:51:08.464Z,100973.78
2022-10-25T23:53:35.937Z,100974.50
2022-10-25T23:56:04.058Z,100970.91
2022-10-25T23:58:30.802Z,100972.25
